createdAt,value
2023-05-14T00:00:49.417Z,52.95
2023-05-14T00:03:17.855Z,55.97
2023-05-14T00:05:47.677Z,48.10
2023-05-14T00:08:15.901Z,59.13
2023-05-14T00:10:44.143Z,55.30
2023-05-14T00:13:12.359Z,47.00
2023-05-14T00:15:40.880Z,53.17
2023-05-14T00:18:12.183Z,49.00
2023-05-14T00:20:40.517Z,45.33
2023-05-14T00:23:10.258Z,47.38
2023-05-14T00:25:38.842Z,45.92
2023-05-14T00:28:07.053Z,44.45
2023-05-14T00:30:35.362Z,45.10
2023-05-14T00:33:03.635Z,44.10
2023-05-14T00:35:32.421Z,44.45
2023-05-14T00:38:00.704Z,44.80
2023-05-14T00:40:30.816Z,48.95
2023-05-14T00:42:59.140Z,47.35
2023-05-14T00:45:27.820Z,53.75
2023-05-14T00:47:56.313Z,47.22
2023-05-14T00:50:25.253Z,44.50
2023-05-14T00:52:53.797Z,52.58
2023-05-14T00:55:23.016Z,47.58
2023-05-14T00:57:54.716Z,46.58
2023-05-14T01:00:23.185Z,45.83
2023-05-14T01:02:51.922Z,44.72
2023-05-14T01:05:20.291Z,40.92
2023-05-14T01:07:56.556Z,42.78
2023-05-14T01:10:32.600Z,44.63
2023-05-14T01:13:13.905Z,39.90
2023-05-14T01:15:45.392Z,40.72
2023-05-14T01:18:18.914Z,38.92
2023-05-14T01:20:47.428Z,41.83
2023-05-14T01:23:17.296Z,47.92
2023-05-14T01:25:45.605Z,40.83
2023-05-14T01:28:19.024Z,39.38
2023-05-14T01:30:58.488Z,39.88
2023-05-14T01:33:28.770Z,37.80
2023-05-14T01:35:58.603Z,46.08
2023-05-14T01:38:30.836Z,42.88
2023-05-14T01:41:01.090Z,43.28
2023-05-14T01:43:31.504Z,41.00
2023-05-14T01:46:00.227Z,40.70
2023-05-14T01:48:30.120Z,38.33
2023-05-14T01:50:58.484Z,46.88
2023-05-14T01:53:28.205Z,41.85
2023-05-14T01:55:56.530Z,45.40
2023-05-14T01:58:24.860Z,52.20
2023-05-14T02:00:53.145Z,44.13
2023-05-14T02:03:21.767Z,41.92
2023-05-14T02:05:50.060Z,41.40
2023-05-14T02:08:18.433Z,45.42
2023-05-14T02:10:48.158Z,41.90
2023-05-14T02:13:18.352Z,46.35
2023-05-14T02:15:47.396Z,43.38
2023-05-14T02:18:15.955Z,44.38
2023-05-14T02:20:44.490Z,43.85
2023-05-14T02:23:12.997Z,44.17
2023-05-14T02:25:41.349Z,41.83
2023-05-14T02:28:11.280Z,41.25
2023-05-14T02:30:40.186Z,45.42
2023-05-14T02:33:08.718Z,44.40
2023-05-14T02:35:37.460Z,43.45
2023-05-14T02:38:06.868Z,43.50
2023-05-14T02:40:35.244Z,45.63
2023-05-14T02:43:03.520Z,43.00
2023-05-14T02:45:33.136Z,44.83
2023-05-14T02:48:01.560Z,43.08
2023-05-14T02:50:30.362Z,38.85
2023-05-14T02:52:58.588Z,40.13
2023-05-14T02:55:27.471Z,42.53
2023-05-14T02:57:56.893Z,42.78
2023-05-14T03:00:25.812Z,44.17
2023-05-14T03:02:56.335Z,42.13
2023-05-14T03:05:25.180Z,41.50
2023-05-14T03:07:54.075Z,40.25
2023-05-14T03:10:22.598Z,35.03
2023-05-14T03:12:51.655Z,40.70
2023-05-14T03:15:20.215Z,37.35
2023-05-14T03:17:48.572Z,35.78
2023-05-14T03:20:18.938Z,36.60
2023-05-14T03:22:48.060Z,33.85
2023-05-14T03:25:16.348Z,32.45
2023-05-14T03:27:44.637Z,26.85
2023-05-14T03:30:13.809Z,28.38
2023-05-14T03:32:43.107Z,23.83
2023-05-14T03:35:12.537Z,22.00
2023-05-14T03:37:42.342Z,17.38
2023-05-14T03:40:11.463Z,17.83
2023-05-14T03:42:39.849Z,17.00
2023-05-14T03:45:10.796Z,17.23
2023-05-14T03:47:39.125Z,17.30
2023-05-14T03:50:08.907Z,15.77
2023-05-14T03:52:37.402Z,16.77
2023-05-14T03:55:08.226Z,17.65
2023-05-14T03:57:37.912Z,12.88
2023-05-14T04:00:07.315Z,12.73
2023-05-14T04:02:46.160Z,13.05
2023-05-14T04:05:14.819Z,10.43
2023-05-14T04:07:45.281Z,10.57
2023-05-14T04:10:15.972Z,9.88
2023-05-14T04:12:44.283Z,10.95
2023-05-14T04:15:13.049Z,10.52
2023-05-14T04:17:43.014Z,10.40
2023-05-14T04:20:13.994Z,13.88
2023-05-14T04:22:42.356Z,10.20
2023-05-14T04:25:11.018Z,10.15
2023-05-14T04:27:41.582Z,11.30
2023-05-14T04:30:11.409Z,10.48
2023-05-14T04:32:40.031Z,8.43
2023-05-14T04:35:10.114Z,13.13
2023-05-14T04:37:38.455Z,9.85
2023-05-14T04:40:08.239Z,10.93
2023-05-14T04:42:36.584Z,11.27
2023-05-14T04:45:07.267Z,14.60
2023-05-14T04:47:36.018Z,11.32
2023-05-14T04:50:04.400Z,10.60
2023-05-14T04:52:34.558Z,10.85
2023-05-14T04:55:02.866Z,10.32
2023-05-14T04:57:33.435Z,12.00
2023-05-14T05:00:02.024Z,8.50
2023-05-14T05:02:34.856Z,14.70
2023-05-14T05:05:04.170Z,10.70
2023-05-14T05:07:35.158Z,10.77
2023-05-14T05:10:03.589Z,10.10
2023-05-14T05:12:35.445Z,10.60
2023-05-14T05:15:04.032Z,12.57
2023-05-14T05:17:38.161Z,7.57
2023-05-14T05:20:09.776Z,6.25
2023-05-14T05:22:38.096Z,6.28
2023-05-14T05:25:08.200Z,5.20
2023-05-14T05:27:36.791Z,7.50
2023-05-14T05:30:06.506Z,8.75
2023-05-14T05:32:37.882Z,7.90
2023-05-14T05:35:06.901Z,7.40
2023-05-14T05:37:35.177Z,13.75
2023-05-14T05:40:04.332Z,14.68
2023-05-14T05:42:32.988Z,6.32
2023-05-14T05:45:01.325Z,3.97
2023-05-14T05:47:33.252Z,6.97
2023-05-14T05:50:03.048Z,8.32
2023-05-14T05:52:32.449Z,10.82
2023-05-14T05:55:01.103Z,11.88
2023-05-14T05:57:30.486Z,4.85
2023-05-14T05:59:59.192Z,7.43
2023-05-14T06:02:27.590Z,5.85
2023-05-14T06:04:56.030Z,4.57
2023-05-14T06:07:25.737Z,7.60
2023-05-14T06:09:54.050Z,9.10
2023-05-14T06:12:22.318Z,6.85
2023-05-14T06:14:51.416Z,3.75
2023-05-14T06:17:19.849Z,4.13
2023-05-14T06:19:48.392Z,11.85
2023-05-14T06:22:16.735Z,6.30
2023-05-14T06:24:46.530Z,181.45
2023-05-14T06:27:14.945Z,43.45
2023-05-14T06:29:43.174Z,5.95
2023-05-14T06:32:14.339Z,4.28
2023-05-14T06:34:42.803Z,3.60
2023-05-14T06:37:12.814Z,2.70
2023-05-14T06:39:44.251Z,6.03
2023-05-14T06:42:13.967Z,3.92
2023-05-14T06:44:42.490Z,4.30
2023-05-14T06:47:10.822Z,5.10
2023-05-14T06:49:39.197Z,11.35
2023-05-14T06:52:08.303Z,7.10
2023-05-14T06:54:36.569Z,8.05
2023-05-14T06:57:05.405Z,4.55
2023-05-14T06:59:34.985Z,7.18
2023-05-14T07:02:03.495Z,4.20
2023-05-14T07:04:32.082Z,3.45
2023-05-14T07:07:00.543Z,3.70
2023-05-14T07:09:29.780Z,2.70
2023-05-14T07:11:58.116Z,3.72
2023-05-14T07:14:26.712Z,1.55
2023-05-14T07:16:57.360Z,2.60
2023-05-14T07:19:28.748Z,4.43
2023-05-14T07:21:57.765Z,4.13
2023-05-14T07:24:26.032Z,5.47
2023-05-14T07:26:54.649Z,6.05
2023-05-14T07:29:22.913Z,5.40
2023-05-14T07:31:51.556Z,4.78
2023-05-14T07:34:21.503Z,5.43
2023-05-14T07:36:49.876Z,4.35
2023-05-14T07:39:18.217Z,5.15
2023-05-14T07:41:46.614Z,6.78
2023-05-14T07:44:14.910Z,4.43
2023-05-14T07:46:43.738Z,3.95
2023-05-14T07:49:12.018Z,6.13
2023-05-14T07:51:42.084Z,3.97
2023-05-14T07:54:11.342Z,6.45
2023-05-14T07:56:39.652Z,3.95
2023-05-14T07:59:08.382Z,8.65
2023-05-14T08:01:38.584Z,4.53
2023-05-14T08:04:08.099Z,3.25
2023-05-14T08:06:37.262Z,5.15
2023-05-14T08:09:07.043Z,4.50
2023-05-14T08:11:35.464Z,10.52
2023-05-14T08:14:03.781Z,5.30
2023-05-14T08:16:32.040Z,9.40
2023-05-14T08:19:01.615Z,4.82
2023-05-14T08:21:30.107Z,4.38
2023-05-14T08:23:58.424Z,5.35
2023-05-14T08:26:28.273Z,6.20
2023-05-14T08:28:56.719Z,4.97
2023-05-14T08:31:25.311Z,7.45
2023-05-14T08:33:53.611Z,4.40
2023-05-14T08:36:22.027Z,5.18
2023-05-14T08:38:50.893Z,4.43
2023-05-14T08:41:19.889Z,5.45
2023-05-14T08:43:59.779Z,5.15
2023-05-14T08:46:31.719Z,5.50
2023-05-14T08:49:06.315Z,7.75
2023-05-14T08:51:34.837Z,8.35
2023-05-14T08:54:04.409Z,11.57
2023-05-14T08:56:34.005Z,12.48
2023-05-14T08:59:03.874Z,7.28
2023-05-14T09:01:32.440Z,4.50
2023-05-14T09:04:07.185Z,9.00
2023-05-14T09:06:37.678Z,8.90
2023-05-14T09:09:06.560Z,5.00
2023-05-14T09:11:34.892Z,5.95
2023-05-14T09:14:04.739Z,6.50
2023-05-14T09:16:33.430Z,6.45
2023-05-14T09:19:01.903Z,4.28
2023-05-14T09:21:32.826Z,9.25
2023-05-14T09:24:02.139Z,7.07
2023-05-14T09:26:33.919Z,8.30
2023-05-14T09:29:05.185Z,6.70
2023-05-14T09:31:35.272Z,3.08
2023-05-14T09:34:04.497Z,2.67
2023-05-14T09:36:35.593Z,5.97
2023-05-14T09:39:05.869Z,3.85
2023-05-14T09:41:34.085Z,7.22
2023-05-14T09:44:04.174Z,6.13
2023-05-14T09:46:35.218Z,6.88
2023-05-14T09:49:03.684Z,5.72
2023-05-14T09:51:33.371Z,4.93
2023-05-14T09:54:02.062Z,7.72
2023-05-14T09:56:30.647Z,9.70
2023-05-14T09:58:59.119Z,3.03
2023-05-14T10:01:29.617Z,10.15
2023-05-14T10:03:59.310Z,4.13
2023-05-14T10:06:31.937Z,5.53
2023-05-14T10:09:12.365Z,7.05
2023-05-14T10:11:46.417Z,7.50
2023-05-14T10:14:19.816Z,4.50
2023-05-14T10:16:50.675Z,17.88
2023-05-14T10:19:24.703Z,10.32
2023-05-14T10:21:58.329Z,9.30
2023-05-14T10:24:27.897Z,7.18
2023-05-14T10:26:58.751Z,5.20
2023-05-14T10:29:34.979Z,4.80
2023-05-14T10:32:06.759Z,5.68
2023-05-14T10:34:42.696Z,7.07
2023-05-14T10:37:13.675Z,19.60
2023-05-14T10:39:46.442Z,20.33
2023-05-14T10:42:17.700Z,7.30
2023-05-14T10:44:52.492Z,15.98
2023-05-14T10:47:21.536Z,8.73
2023-05-14T10:49:54.907Z,7.32
2023-05-14T10:52:24.994Z,8.13
2023-05-14T10:54:55.363Z,6.03
2023-05-14T10:57:26.619Z,5.28
2023-05-14T10:59:56.536Z,11.75
2023-05-14T11:02:27.032Z,6.70
2023-05-14T11:05:11.123Z,7.60
2023-05-14T11:07:41.360Z,7.03
2023-05-14T11:10:11.237Z,9.57
2023-05-14T11:12:41.652Z,5.65
2023-05-14T11:15:12.145Z,24.02
2023-05-14T11:17:42.455Z,8.27
2023-05-14T11:20:16.800Z,11.00
2023-05-14T11:22:46.822Z,4.75
2023-05-14T11:25:16.292Z,25.35
2023-05-14T11:27:46.199Z,5.43
2023-05-14T11:30:16.323Z,13.38
2023-05-14T11:32:46.435Z,7.47
2023-05-14T11:35:17.267Z,7.50
2023-05-14T11:37:51.969Z,4.95
2023-05-14T11:40:21.510Z,6.13
2023-05-14T11:42:52.561Z,8.23
2023-05-14T11:45:26.541Z,13.07
2023-05-14T11:47:55.207Z,10.60
2023-05-14T11:50:25.292Z,10.10
2023-05-14T11:52:58.480Z,5.70
2023-05-14T11:55:27.153Z,7.25
2023-05-14T11:57:55.945Z,10.85
2023-05-14T12:00:25.293Z,12.93
2023-05-14T12:02:53.945Z,8.65
2023-05-14T12:05:22.420Z,6.95
2023-05-14T12:07:52.166Z,6.75
2023-05-14T12:10:20.926Z,10.50
2023-05-14T12:12:50.745Z,6.13
2023-05-14T12:15:22.006Z,9.98
2023-05-14T12:17:53.975Z,6.93
2023-05-14T12:20:26.469Z,9.07
2023-05-14T12:22:56.915Z,6.53
2023-05-14T12:25:27.307Z,10.95
2023-05-14T12:27:55.791Z,11.57
2023-05-14T12:30:24.686Z,8.75
2023-05-14T12:32:53.816Z,7.35
2023-05-14T12:35:22.960Z,6.35
2023-05-14T12:37:54.445Z,11.07
2023-05-14T12:40:25.600Z,16.00
2023-05-14T12:42:56.869Z,21.98
2023-05-14T12:45:26.178Z,27.50
2023-05-14T12:47:58.477Z,11.45
2023-05-14T12:50:32.599Z,18.23
2023-05-14T12:53:05.785Z,13.70
2023-05-14T12:55:40.350Z,25.05
2023-05-14T12:58:10.164Z,32.20
2023-05-14T13:00:42.257Z,13.77
2023-05-14T13:03:11.163Z,23.73
2023-05-14T13:05:40.230Z,25.75
2023-05-14T13:08:08.945Z,15.10
2023-05-14T13:10:38.985Z,14.45
2023-05-14T13:13:07.697Z,14.80
2023-05-14T13:15:39.882Z,19.70
2023-05-14T13:18:08.900Z,11.07
2023-05-14T13:20:43.086Z,28.10
2023-05-14T13:23:12.022Z,13.27
2023-05-14T13:25:43.759Z,11.15
2023-05-14T13:28:12.639Z,13.68
2023-05-14T13:31:04.093Z,13.88
2023-05-14T13:33:33.985Z,17.15
2023-05-14T13:36:06.031Z,31.98
2023-05-14T13:38:38.383Z,12.45
2023-05-14T13:41:08.827Z,44.97
2023-05-14T13:43:37.254Z,17.15
2023-05-14T13:46:07.318Z,24.33
2023-05-14T13:48:37.522Z,24.05
2023-05-14T13:51:06.347Z,33.80
2023-05-14T13:53:35.008Z,45.42
2023-05-14T13:56:03.829Z,20.45
2023-05-14T13:58:33.984Z,13.70
2023-05-14T14:01:02.916Z,10.77
2023-05-14T14:03:32.257Z,10.25
2023-05-14T14:06:01.219Z,9.88
2023-05-14T14:08:31.265Z,38.30
2023-05-14T14:11:03.277Z,34.72
2023-05-14T14:13:33.426Z,34.08
2023-05-14T14:16:03.357Z,45.60
2023-05-14T14:18:36.284Z,23.27
2023-05-14T14:21:07.790Z,33.03
2023-05-14T14:23:36.928Z,28.38
2023-05-14T14:26:06.357Z,23.02
2023-05-14T14:28:37.184Z,10.88
2023-05-14T14:31:06.073Z,13.02
2023-05-14T14:33:35.163Z,15.93
2023-05-14T14:36:03.959Z,14.63
2023-05-14T14:38:32.630Z,12.40
2023-05-14T14:41:03.421Z,14.70
2023-05-14T14:43:32.311Z,13.48
2023-05-14T14:46:02.898Z,18.63
2023-05-14T14:48:37.664Z,13.90
2023-05-14T14:51:10.429Z,52.92
2023-05-14T14:53:41.912Z,15.75
2023-05-14T14:56:10.614Z,16.35
2023-05-14T14:58:39.956Z,16.48
2023-05-14T15:01:13.069Z,11.40
2023-05-14T15:03:41.989Z,11.25
2023-05-14T15:06:12.131Z,17.10
2023-05-14T15:08:41.733Z,22.85
2023-05-14T15:11:10.984Z,12.02
2023-05-14T15:13:41.042Z,27.83
2023-05-14T15:16:14.516Z,15.60
2023-05-14T15:18:43.781Z,12.43
2023-05-14T15:21:13.165Z,33.40
2023-05-14T15:23:42.207Z,27.15
2023-05-14T15:26:10.929Z,13.90
2023-05-14T15:28:44.934Z,10.70
2023-05-14T15:31:19.559Z,51.67
2023-05-14T15:33:52.301Z,32.03
2023-05-14T15:36:22.395Z,29.77
2023-05-14T15:38:55.986Z,20.98
2023-05-14T15:41:28.984Z,29.40
2023-05-14T15:43:59.020Z,16.17
2023-05-14T15:46:29.304Z,13.90
2023-05-14T15:48:58.913Z,15.52
2023-05-14T15:51:27.631Z,18.65
2023-05-14T15:53:56.748Z,14.27
2023-05-14T15:56:26.351Z,10.23
2023-05-14T15:58:55.259Z,11.60
2023-05-14T16:01:30.030Z,29.23
2023-05-14T16:04:00.472Z,23.30
2023-05-14T16:06:32.751Z,26.30
2023-05-14T16:09:04.203Z,19.45
2023-05-14T16:11:36.186Z,14.32
2023-05-14T16:14:05.347Z,11.20
2023-05-14T16:16:34.031Z,26.10
2023-05-14T16:19:08.053Z,40.50
2023-05-14T16:21:45.563Z,25.38
2023-05-14T16:24:19.773Z,14.45
2023-05-14T16:26:49.344Z,32.47
2023-05-14T16:29:18.549Z,31.13
2023-05-14T16:31:47.743Z,45.13
2023-05-14T16:34:20.350Z,27.88
2023-05-14T16:36:49.614Z,16.80
2023-05-14T16:39:21.480Z,40.08
2023-05-14T16:42:01.394Z,20.50
2023-05-14T16:44:33.017Z,35.17
2023-05-14T16:47:01.925Z,35.78
2023-05-14T16:49:32.140Z,24.25
2023-05-14T16:52:03.360Z,21.65
2023-05-14T16:54:34.933Z,34.08
2023-05-14T16:57:03.306Z,33.00
2023-05-14T16:59:31.794Z,27.55
2023-05-14T17:02:00.305Z,39.28
2023-05-14T17:04:29.236Z,26.70
2023-05-14T17:06:59.417Z,33.05
2023-05-14T17:09:27.672Z,31.30
2023-05-14T17:11:56.144Z,26.23
2023-05-14T17:14:29.321Z,38.88
2023-05-14T17:17:00.337Z,22.70
2023-05-14T17:19:30.121Z,31.67
2023-05-14T17:22:00.625Z,30.10
2023-05-14T17:24:28.872Z,34.60
2023-05-14T17:26:57.138Z,24.52
2023-05-14T17:29:25.593Z,20.55
2023-05-14T17:31:54.662Z,41.33
2023-05-14T17:34:23.167Z,95.32
2023-05-14T17:36:51.638Z,58.63
2023-05-14T17:39:21.205Z,33.35
2023-05-14T17:41:49.471Z,55.15
2023-05-14T17:44:17.767Z,31.88
2023-05-14T17:46:46.253Z,22.52
2023-05-14T17:49:14.523Z,29.20
2023-05-14T17:51:42.817Z,33.53
2023-05-14T17:54:11.125Z,45.95
2023-05-14T17:56:41.522Z,40.78
2023-05-14T17:59:09.897Z,33.80
2023-05-14T18:01:38.174Z,27.08
2023-05-14T18:04:06.934Z,28.88
2023-05-14T18:06:36.817Z,26.08
2023-05-14T18:09:05.435Z,25.58
2023-05-14T18:11:34.078Z,29.92
2023-05-14T18:14:04.162Z,38.00
2023-05-14T18:16:32.724Z,42.08
2023-05-14T18:19:01.407Z,111.05
2023-05-14T18:21:30.223Z,113.93
2023-05-14T18:23:58.544Z,54.55
2023-05-14T18:26:26.909Z,59.70
2023-05-14T18:28:55.628Z,91.13
2023-05-14T18:31:27.433Z,47.20
2023-05-14T18:33:55.876Z,41.10
2023-05-14T18:36:24.133Z,36.75
2023-05-14T18:38:52.546Z,31.35
2023-05-14T18:41:21.862Z,40.42
2023-05-14T18:43:50.143Z,38.53
2023-05-14T18:46:18.574Z,54.15
2023-05-14T18:48:48.390Z,81.25
2023-05-14T18:51:16.646Z,49.95
2023-05-14T18:53:44.956Z,66.13
2023-05-14T18:56:13.365Z,51.70
2023-05-14T18:58:41.705Z,68.32
2023-05-14T19:01:10.114Z,36.08
2023-05-14T19:03:38.710Z,41.60
2023-05-14T19:06:08.843Z,58.42
2023-05-14T19:08:37.227Z,45.45
2023-05-14T19:11:05.900Z,40.95
2023-05-14T19:13:34.165Z,49.22
2023-05-14T19:16:02.662Z,59.88
2023-05-14T19:18:31.396Z,45.80
2023-05-14T19:21:00.140Z,47.22
2023-05-14T19:23:31.201Z,43.83
2023-05-14T19:25:59.800Z,51.65
2023-05-14T19:28:28.093Z,49.05
2023-05-14T19:30:57.382Z,47.60
2023-05-14T19:33:26.419Z,65.25
2023-05-14T19:35:55.532Z,44.72
2023-05-14T19:38:23.811Z,41.90
2023-05-14T19:40:57.073Z,43.83
2023-05-14T19:43:26.208Z,72.57
2023-05-14T19:45:54.534Z,53.10
2023-05-14T19:48:23.235Z,47.53
2023-05-14T19:50:51.979Z,48.25
2023-05-14T19:53:20.348Z,45.22
2023-05-14T19:55:48.927Z,41.60
2023-05-14T19:58:18.686Z,41.25
2023-05-14T20:00:47.433Z,40.13
2023-05-14T20:03:15.955Z,55.95
2023-05-14T20:05:46.026Z,46.67
2023-05-14T20:08:14.396Z,37.67
2023-05-14T20:10:42.628Z,48.72
2023-05-14T20:13:11.170Z,42.75
2023-05-14T20:15:41.301Z,35.20
2023-05-14T20:18:09.889Z,41.97
2023-05-14T20:20:38.235Z,37.67
2023-05-14T20:23:06.826Z,45.15
2023-05-14T20:25:35.740Z,38.85
2023-05-14T20:28:04.031Z,36.17
2023-05-14T20:30:32.536Z,41.05
2023-05-14T20:33:02.415Z,35.90
2023-05-14T20:35:31.294Z,31.58
2023-05-14T20:38:00.282Z,39.75
2023-05-14T20:40:28.682Z,30.92
2023-05-14T20:42:57.080Z,33.40
2023-05-14T20:45:25.584Z,34.80
2023-05-14T20:47:53.924Z,34.55
2023-05-14T20:50:23.687Z,33.53
2023-05-14T20:52:52.145Z,40.75
2023-05-14T20:55:21.784Z,38.42
2023-05-14T20:57:50.715Z,51.20
2023-05-14T21:00:19.908Z,60.63
2023-05-14T21:02:49.226Z,53.35
2023-05-14T21:05:18.581Z,48.90
2023-05-14T21:07:48.228Z,54.28
2023-05-14T21:10:17.124Z,48.10
2023-05-14T21:12:45.555Z,51.80
2023-05-14T21:15:13.820Z,49.63
2023-05-14T21:17:42.188Z,48.92
2023-05-14T21:20:13.465Z,53.28
2023-05-14T21:22:41.795Z,49.55
2023-05-14T21:25:12.067Z,59.88
2023-05-14T21:27:40.493Z,55.92
2023-05-14T21:30:09.977Z,58.85
2023-05-14T21:32:38.440Z,53.17
2023-05-14T21:35:07.454Z,52.25
2023-05-14T21:37:35.790Z,52.90
2023-05-14T21:40:04.044Z,42.70
2023-05-14T21:42:35.848Z,40.38
2023-05-14T21:45:04.261Z,51.42
2023-05-14T21:47:34.820Z,45.65
2023-05-14T21:50:04.933Z,44.13
2023-05-14T21:52:34.159Z,45.10
2023-05-14T21:55:02.402Z,47.40
2023-05-14T21:57:34.242Z,46.80
2023-05-14T22:00:07.727Z,53.78
2023-05-14T22:02:36.029Z,50.40
2023-05-14T22:05:05.258Z,51.05
2023-05-14T22:07:33.782Z,45.20
2023-05-14T22:10:02.329Z,41.90
2023-05-14T22:12:47.049Z,51.35
2023-05-14T22:15:16.813Z,38.95
2023-05-14T22:17:45.065Z,51.83
2023-05-14T22:20:13.610Z,44.10
2023-05-14T22:22:41.988Z,47.63
2023-05-14T22:25:11.079Z,47.63
2023-05-14T22:27:39.294Z,37.33
2023-05-14T22:30:08.927Z,41.35
2023-05-14T22:32:38.518Z,50.47
2023-05-14T22:35:07.123Z,43.92
2023-05-14T22:37:35.356Z,46.97
2023-05-14T22:40:05.216Z,48.85
2023-05-14T22:42:33.925Z,51.35
2023-05-14T22:45:02.418Z,66.82
2023-05-14T22:47:33.384Z,79.80
2023-05-14T22:50:03.293Z,58.97
2023-05-14T22:52:32.731Z,62.65
2023-05-14T22:55:01.029Z,43.78
2023-05-14T22:57:29.379Z,48.80
2023-05-14T22:59:57.633Z,48.92
2023-05-14T23:02:25.837Z,51.05
2023-05-14T23:04:54.317Z,46.95
2023-05-14T23:07:24.214Z,49.20
2023-05-14T23:09:52.546Z,43.45
2023-05-14T23:12:20.769Z,42.92
2023-05-14T23:14:49.059Z,34.28
2023-05-14T23:17:18.348Z,39.97
2023-05-14T23:19:46.788Z,41.20
2023-05-14T23:22:15.089Z,38.95
2023-05-14T23:24:45.088Z,38.42
2023-05-14T23:27:13.418Z,36.95
2023-05-14T23:29:41.691Z,42.03
2023-05-14T23:32:10.181Z,42.75
2023-05-14T23:34:38.549Z,39.72
2023-05-14T23:37:07.768Z,36.70
2023-05-14T23:39:36.081Z,35.13
2023-05-14T23:42:05.855Z,33.35
2023-05-14T23:44:34.077Z,38.17
2023-05-14T23:47:02.506Z,30.95
2023-05-14T23:49:30.920Z,34.78
2023-05-14T23:51:59.154Z,38.28
2023-05-14T23:54:27.403Z,30.90
2023-05-14T23:56:55.703Z,42.30
2023-05-14T23:59:25.424Z,35.40
